sensor_id;sensor_type;location;lat;lon;timestamp;pressure;altitude;pressure_sealevel;temperature;humidity
15884;BME280;8040;50.254;10.960;2023-02-19T00:01:19;98425.53;;;11.26;76.47
15884;BME280;8040;50.254;10.960;2023-02-19T00:03:50;98424.94;;;11.29;76.75
15884;BME280;8040;50.254;10.960;2023-02-19T00:06:17;98406.72;;;11.30;76.80
15884;BME280;8040;50.254;10.960;2023-02-19T00:08:42;98404.84;;;11.30;76.74
15884;BME280;8040;50.254;10.960;2023-02-19T00:11:11;98404.63;;;11.27;76.55
15884;BME280;8040;50.254;10.960;2023-02-19T00:13:39;98407.53;;;11.17;76.79
15884;BME280;8040;50.254;10.960;2023-02-19T00:18:56;98414.69;;;11.26;76.96
15884;BME280;8040;50.254;10.960;2023-02-19T00:21:24;98422.16;;;11.34;76.66
15884;BME280;8040;50.254;10.960;2023-02-19T00:23:52;98416.00;;;11.29;76.53
15884;BME280;8040;50.254;10.960;2023-02-19T00:26:17;98402.81;;;11.22;76.50
15884;BME280;8040;50.254;10.960;2023-02-19T00:28:43;98413.59;;;11.27;76.64
15884;BME280;8040;50.254;10.960;2023-02-19T00:31:30;98406.72;;;11.30;76.57
15884;BME280;8040;50.254;10.960;2023-02-19T00:33:58;98390.66;;;11.20;76.74
15884;BME280;8040;50.254;10.960;2023-02-19T00:36:25;98376.59;;;11.18;76.73
15884;BME280;8040;50.254;10.960;2023-02-19T00:38:51;98374.66;;;11.18;76.94
15884;BME280;8040;50.254;10.960;2023-02-19T00:41:17;98386.66;;;11.31;76.51
15884;BME280;8040;50.254;10.960;2023-02-19T00:46:16;98364.81;;;11.22;76.44
15884;BME280;8040;50.254;10.960;2023-02-19T00:48:42;98354.94;;;11.13;76.69
15884;BME280;8040;50.254;10.960;2023-02-19T00:51:08;98358.38;;;11.18;76.89
15884;BME280;8040;50.254;10.960;2023-02-19T00:53:33;98361.91;;;11.19;76.46
15884;BME280;8040;50.254;10.960;2023-02-19T00:55:59;98343.78;;;11.14;76.33
15884;BME280;8040;50.254;10.960;2023-02-19T00:58:24;98369.91;;;11.24;76.63
15884;BME280;8040;50.254;10.960;2023-02-19T01:00:49;98363.59;;;11.28;76.16
15884;BME280;8040;50.254;10.960;2023-02-19T01:03:15;98360.81;;;11.33;76.10
15884;BME280;8040;50.254;10.960;2023-02-19T01:05:40;98359.78;;;11.43;75.61
15884;BME280;8040;50.254;10.960;2023-02-19T01:08:05;98332.53;;;11.21;75.69
15884;BME280;8040;50.254;10.960;2023-02-19T01:10:31;98346.00;;;11.26;75.58
15884;BME280;8040;50.254;10.960;2023-02-19T01:12:56;98327.59;;;11.23;75.63
15884;BME280;8040;50.254;10.960;2023-02-19T01:15:21;98327.50;;;11.28;75.36
15884;BME280;8040;50.254;10.960;2023-02-19T01:17:47;98330.28;;;11.23;75.45
15884;BME280;8040;50.254;10.960;2023-02-19T01:20:12;98315.84;;;11.14;75.40
15884;BME280;8040;50.254;10.960;2023-02-19T01:22:38;98324.00;;;11.27;75.04
15884;BME280;8040;50.254;10.960;2023-02-19T01:25:03;98311.28;;;11.23;75.08
15884;BME280;8040;50.254;10.960;2023-02-19T01:27:29;98302.66;;;11.21;74.75
15884;BME280;8040;50.254;10.960;2023-02-19T01:29:54;98296.13;;;11.22;74.53
15884;BME280;8040;50.254;10.960;2023-02-19T01:32:19;98298.25;;;11.25;74.68
15884;BME280;8040;50.254;10.960;2023-02-19T01:34:45;98294.81;;;11.19;74.61
15884;BME280;8040;50.254;10.960;2023-02-19T01:37:10;98290.00;;;11.16;74.49
15884;BME280;8040;50.254;10.960;2023-02-19T01:39:37;98291.59;;;11.17;74.32
15884;BME280;8040;50.254;10.960;2023-02-19T01:42:04;98297.22;;;11.21;74.38
15884;BME280;8040;50.254;10.960;2023-02-19T01:46:55;98294.72;;;11.24;73.99
15884;BME280;8040;50.254;10.960;2023-02-19T01:49:31;98282.16;;;11.28;73.56
15884;BME280;8040;50.254;10.960;2023-02-19T01:52:00;98278.91;;;11.40;73.24
15884;BME280;8040;50.254;10.960;2023-02-19T01:54:29;98279.53;;;11.37;73.26
15884;BME280;8040;50.254;10.960;2023-02-19T01:56:57;98283.31;;;11.36;73.14
15884;BME280;8040;50.254;10.960;2023-02-19T01:59:24;98290.16;;;11.47;72.97
15884;BME280;8040;50.254;10.960;2023-02-19T02:01:50;98276.56;;;11.47;72.36
15884;BME280;8040;50.254;10.960;2023-02-19T02:04:16;98267.03;;;11.36;72.52
15884;BME280;8040;50.254;10.960;2023-02-19T02:06:54;98272.97;;;11.38;72.32
15884;BME280;8040;50.254;10.960;2023-02-19T02:09:23;98274.78;;;11.42;71.99
15884;BME280;8040;50.254;10.960;2023-02-19T02:12:09;98278.50;;;11.46;72.12
15884;BME280;8040;50.254;10.960;2023-02-19T02:14:36;98274.28;;;11.40;72.22
15884;BME280;8040;50.254;10.960;2023-02-19T02:22:52;98249.56;;;11.28;72.14
15884;BME280;8040;50.254;10.960;2023-02-19T02:28:05;98251.16;;;11.43;72.16
15884;BME280;8040;50.254;10.960;2023-02-19T02:33:19;98254.84;;;11.47;71.87
15884;BME280;8040;50.254;10.960;2023-02-19T02:35:57;98235.25;;;11.50;71.33
15884;BME280;8040;50.254;10.960;2023-02-19T02:38:26;98231.03;;;11.44;71.65
15884;BME280;8040;50.254;10.960;2023-02-19T02:40:53;98240.66;;;11.50;71.70
15884;BME280;8040;50.254;10.960;2023-02-19T02:43:20;98231.31;;;11.42;71.69
15884;BME280;8040;50.254;10.960;2023-02-19T02:45:45;98238.34;;;11.57;71.25
15884;BME280;8040;50.254;10.960;2023-02-19T02:48:19;98240.06;;;11.66;71.11
15884;BME280;8040;50.254;10.960;2023-02-19T02:51:17;98244.47;;;11.62;71.13
15884;BME280;8040;50.254;10.960;2023-02-19T02:56:53;98231.22;;;11.61;70.89
15884;BME280;8040;50.254;10.960;2023-02-19T02:59:21;98231.09;;;11.66;70.55
15884;BME280;8040;50.254;10.960;2023-02-19T03:01:53;98248.00;;;11.63;70.83
15884;BME280;8040;50.254;10.960;2023-02-19T03:04:46;98238.06;;;11.58;70.88
15884;BME280;8040;50.254;10.960;2023-02-19T03:07:38;98237.34;;;11.66;70.88
15884;BME280;8040;50.254;10.960;2023-02-19T03:10:12;98233.13;;;11.60;70.97
15884;BME280;8040;50.254;10.960;2023-02-19T03:12:39;98227.19;;;11.58;70.93
15884;BME280;8040;50.254;10.960;2023-02-19T03:15:32;98222.94;;;11.66;70.74
15884;BME280;8040;50.254;10.960;2023-02-19T03:18:17;98218.50;;;11.56;71.01
15884;BME280;8040;50.254;10.960;2023-02-19T03:21:03;98207.78;;;11.51;71.24
15884;BME280;8040;50.254;10.960;2023-02-19T03:23:32;98222.25;;;11.60;71.13
15884;BME280;8040;50.254;10.960;2023-02-19T03:26:18;98225.88;;;11.56;71.20
15884;BME280;8040;50.254;10.960;2023-02-19T03:28:46;98205.38;;;11.50;71.42
15884;BME280;8040;50.254;10.960;2023-02-19T03:31:32;98216.91;;;11.55;71.32
15884;BME280;8040;50.254;10.960;2023-02-19T03:34:04;98216.13;;;11.55;71.66
15884;BME280;8040;50.254;10.960;2023-02-19T03:36:43;98204.13;;;11.56;71.31
15884;BME280;8040;50.254;10.960;2023-02-19T03:39:11;98211.28;;;11.65;71.14
15884;BME280;8040;50.254;10.960;2023-02-19T03:41:56;98206.78;;;11.61;71.15
15884;BME280;8040;50.254;10.960;2023-02-19T03:47:22;98202.22;;;11.56;71.03
15884;BME280;8040;50.254;10.960;2023-02-19T03:55:05;98201.81;;;11.63;70.86
15884;BME280;8040;50.254;10.960;2023-02-19T03:57:42;98206.25;;;11.59;70.81
15884;BME280;8040;50.254;10.960;2023-02-19T04:00:17;98201.63;;;11.59;71.31
15884;BME280;8040;50.254;10.960;2023-02-19T04:05:36;98205.53;;;11.67;70.84
15884;BME280;8040;50.254;10.960;2023-02-19T04:08:08;98215.31;;;11.68;70.70
15884;BME280;8040;50.254;10.960;2023-02-19T04:10:36;98206.44;;;11.62;70.72
15884;BME280;8040;50.254;10.960;2023-02-19T04:13:07;98206.34;;;11.67;70.39
15884;BME280;8040;50.254;10.960;2023-02-19T04:15:35;98206.44;;;11.62;70.11
15884;BME280;8040;50.254;10.960;2023-02-19T04:18:11;98199.78;;;11.68;70.33
15884;BME280;8040;50.254;10.960;2023-02-19T04:20:42;98217.09;;;11.72;70.55
15884;BME280;8040;50.254;10.960;2023-02-19T04:23:08;98212.78;;;11.71;70.14
15884;BME280;8040;50.254;10.960;2023-02-19T04:25:36;98185.03;;;11.61;69.89
15884;BME280;8040;50.254;10.960;2023-02-19T04:28:02;98220.28;;;11.74;70.25
15884;BME280;8040;50.254;10.960;2023-02-19T04:30:28;98232.53;;;11.85;69.51
15884;BME280;8040;50.254;10.960;2023-02-19T04:32:54;98229.16;;;11.80;69.50
15884;BME280;8040;50.254;10.960;2023-02-19T04:35:19;98232.53;;;11.85;69.21
15884;BME280;8040;50.254;10.960;2023-02-19T04:37:44;98238.97;;;11.89;68.82
15884;BME280;8040;50.254;10.960;2023-02-19T04:40:10;98230.75;;;11.81;69.17
15884;BME280;8040;50.254;10.960;2023-02-19T04:42:35;98233.34;;;11.86;68.82
15884;BME280;8040;50.254;10.960;2023-02-19T04:45:03;98234.31;;;11.90;68.91
15884;BME280;8040;50.254;10.960;2023-02-19T04:47:30;98226.63;;;11.83;68.84
15884;BME280;8040;50.254;10.960;2023-02-19T04:49:56;98227.00;;;11.90;69.07
15884;BME280;8040;50.254;10.960;2023-02-19T04:52:21;98215.63;;;11.88;68.88
15884;BME280;8040;50.254;10.960;2023-02-19T04:54:49;98216.22;;;11.85;69.17
15884;BME280;8040;50.254;10.960;2023-02-19T04:57:14;98213.22;;;11.87;69.17
15884;BME280;8040;50.254;10.960;2023-02-19T04:59:40;98213.50;;;11.85;68.89
15884;BME280;8040;50.254;10.960;2023-02-19T05:02:05;98212.09;;;11.88;69.23
15884;BME280;8040;50.254;10.960;2023-02-19T05:04:31;98210.69;;;11.90;69.31
15884;BME280;8040;50.254;10.960;2023-02-19T05:06:56;98200.38;;;11.79;69.62
15884;BME280;8040;50.254;10.960;2023-02-19T05:09:21;98193.63;;;11.76;69.89
15884;BME280;8040;50.254;10.960;2023-02-19T05:11:47;98178.88;;;11.69;69.79
15884;BME280;8040;50.254;10.960;2023-02-19T05:14:12;98179.16;;;11.54;69.57
15884;BME280;8040;50.254;10.960;2023-02-19T05:16:37;98198.63;;;11.61;70.37
15884;BME280;8040;50.254;10.960;2023-02-19T05:19:03;98201.00;;;11.62;70.40
15884;BME280;8040;50.254;10.960;2023-02-19T05:21:28;98192.69;;;11.59;70.36
15884;BME280;8040;50.254;10.960;2023-02-19T05:23:54;98193.56;;;11.68;70.02
15884;BME280;8040;50.254;10.960;2023-02-19T05:26:22;98193.69;;;11.63;69.64
15884;BME280;8040;50.254;10.960;2023-02-19T05:28:50;98212.88;;;11.66;69.58
15884;BME280;8040;50.254;10.960;2023-02-19T05:31:16;98204.09;;;11.69;69.37
15884;BME280;8040;50.254;10.960;2023-02-19T05:33:42;98206.16;;;11.64;69.18
15884;BME280;8040;50.254;10.960;2023-02-19T05:36:11;98211.47;;;11.69;69.01
15884;BME280;8040;50.254;10.960;2023-02-19T05:38:37;98199.47;;;11.70;69.06
15884;BME280;8040;50.254;10.960;2023-02-19T05:43:37;98224.19;;;11.82;68.30
15884;BME280;8040;50.254;10.960;2023-02-19T05:46:04;98231.88;;;11.80;68.19
15884;BME280;8040;50.254;10.960;2023-02-19T05:48:29;98228.53;;;11.83;68.50
15884;BME280;8040;50.254;10.960;2023-02-19T05:51:00;98205.41;;;11.72;68.19
15884;BME280;8040;50.254;10.960;2023-02-19T05:53:26;98207.81;;;11.73;69.05
15884;BME280;8040;50.254;10.960;2023-02-19T05:55:51;98226.66;;;11.70;68.60
15884;BME280;8040;50.254;10.960;2023-02-19T05:58:17;98215.13;;;11.64;69.30
15884;BME280;8040;50.254;10.960;2023-02-19T06:00:42;98232.19;;;11.65;69.04
15884;BME280;8040;50.254;10.960;2023-02-19T06:03:07;98226.75;;;11.65;69.33
15884;BME280;8040;50.254;10.960;2023-02-19T06:05:33;98216.22;;;11.50;70.06
15884;BME280;8040;50.254;10.960;2023-02-19T06:07:58;98218.44;;;11.48;70.59
15884;BME280;8040;50.254;10.960;2023-02-19T06:10:23;98228.22;;;11.49;71.16
15884;BME280;8040;50.254;10.960;2023-02-19T06:12:52;98238.06;;;11.58;70.64
15884;BME280;8040;50.254;10.960;2023-02-19T06:15:17;98239.44;;;11.56;71.08
15884;BME280;8040;50.254;10.960;2023-02-19T06:17:42;98246.22;;;11.58;71.16
15884;BME280;8040;50.254;10.960;2023-02-19T06:20:08;98234.94;;;11.51;70.96
15884;BME280;8040;50.254;10.960;2023-02-19T06:22:33;98251.84;;;11.48;71.23
15884;BME280;8040;50.254;10.960;2023-02-19T06:24:59;98248.31;;;11.48;71.61
15884;BME280;8040;50.254;10.960;2023-02-19T06:27:24;98246.41;;;11.48;71.95
15884;BME280;8040;50.254;10.960;2023-02-19T06:29:50;98256.69;;;11.51;72.12
15884;BME280;8040;50.254;10.960;2023-02-19T06:32:15;98251.25;;;11.51;72.17
15884;BME280;8040;50.254;10.960;2023-02-19T06:34:41;98252.31;;;11.50;72.48
15884;BME280;8040;50.254;10.960;2023-02-19T06:37:06;98238.47;;;11.38;72.93
15884;BME280;8040;50.254;10.960;2023-02-19T06:39:31;98238.59;;;11.33;72.98
15884;BME280;8040;50.254;10.960;2023-02-19T06:41:57;98268.44;;;11.47;73.06
15884;BME280;8040;50.254;10.960;2023-02-19T06:44:23;98269.66;;;11.41;73.27
15884;BME280;8040;50.254;10.960;2023-02-19T06:46:49;98267.16;;;11.31;73.65
15884;BME280;8040;50.254;10.960;2023-02-19T06:49:15;98280.94;;;11.34;73.71
15884;BME280;8040;50.254;10.960;2023-02-19T06:51:41;98288.16;;;11.39;73.60
15884;BME280;8040;50.254;10.960;2023-02-19T06:54:06;98274.88;;;11.24;73.43
15884;BME280;8040;50.254;10.960;2023-02-19T06:56:34;98261.63;;;11.22;72.86
15884;BME280;8040;50.254;10.960;2023-02-19T06:59:02;98296.69;;;11.46;73.05
15884;BME280;8040;50.254;10.960;2023-02-19T07:01:32;98284.03;;;11.41;72.61
15884;BME280;8040;50.254;10.960;2023-02-19T07:03:58;98285.84;;;11.32;72.58
15884;BME280;8040;50.254;10.960;2023-02-19T07:06:25;98294.63;;;11.43;72.44
15884;BME280;8040;50.254;10.960;2023-02-19T07:08:51;98303.44;;;11.48;72.61
15884;BME280;8040;50.254;10.960;2023-02-19T07:11:17;98302.44;;;11.58;72.47
15884;BME280;8040;50.254;10.960;2023-02-19T07:13:43;98306.47;;;11.47;72.61
15884;BME280;8040;50.254;10.960;2023-02-19T07:16:09;98318.44;;;11.46;72.42
15884;BME280;8040;50.254;10.960;2023-02-19T07:18:35;98316.34;;;11.43;72.87
15884;BME280;8040;50.254;10.960;2023-02-19T07:21:06;98321.44;;;11.58;72.54
15884;BME280;8040;50.254;10.960;2023-02-19T07:23:32;98319.44;;;11.50;71.84
15884;BME280;8040;50.254;10.960;2023-02-19T07:25:57;98319.03;;;11.56;72.06
15884;BME280;8040;50.254;10.960;2023-02-19T07:28:23;98326.38;;;11.56;71.96
15884;BME280;8040;50.254;10.960;2023-02-19T07:30:48;98321.38;;;11.63;71.99
15884;BME280;8040;50.254;10.960;2023-02-19T07:33:14;98333.63;;;11.74;71.64
15884;BME280;8040;50.254;10.960;2023-02-19T07:35:48;98336.63;;;11.86;70.93
15884;BME280;8040;50.254;10.960;2023-02-19T07:38:18;98341.63;;;11.92;70.60
15884;BME280;8040;50.254;10.960;2023-02-19T07:43:16;98343.97;;;11.85;70.80
15884;BME280;8040;50.254;10.960;2023-02-19T07:45:42;98329.88;;;11.83;70.87
15884;BME280;8040;50.254;10.960;2023-02-19T07:48:07;98350.81;;;11.83;70.81
15884;BME280;8040;50.254;10.960;2023-02-19T07:50:33;98345.88;;;11.85;70.85
15884;BME280;8040;50.254;10.960;2023-02-19T07:52:58;98340.06;;;11.78;70.72
15884;BME280;8040;50.254;10.960;2023-02-19T07:55:24;98342.78;;;11.78;70.91
15884;BME280;8040;50.254;10.960;2023-02-19T07:57:49;98357.25;;;11.87;70.76
15884;BME280;8040;50.254;10.960;2023-02-19T08:00:15;98347.13;;;11.79;70.91
15884;BME280;8040;50.254;10.960;2023-02-19T08:02:40;98356.75;;;11.85;70.72
15884;BME280;8040;50.254;10.960;2023-02-19T08:05:24;98365.31;;;11.92;70.67
15884;BME280;8040;50.254;10.960;2023-02-19T08:07:50;98368.31;;;11.90;70.67
15884;BME280;8040;50.254;10.960;2023-02-19T08:10:15;98378.78;;;11.97;70.27
15884;BME280;8040;50.254;10.960;2023-02-19T08:13:00;98353.13;;;11.89;69.88
15884;BME280;8040;50.254;10.960;2023-02-19T08:15:45;98372.13;;;12.03;69.64
15884;BME280;8040;50.254;10.960;2023-02-19T08:18:11;98373.22;;;12.02;69.46
15884;BME280;8040;50.254;10.960;2023-02-19T08:20:38;98373.97;;;11.94;69.50
15884;BME280;8040;50.254;10.960;2023-02-19T08:23:04;98397.19;;;12.13;69.40
15884;BME280;8040;50.254;10.960;2023-02-19T08:25:30;98372.25;;;11.98;68.97
15884;BME280;8040;50.254;10.960;2023-02-19T08:27:55;98385.50;;;12.13;68.89
15884;BME280;8040;50.254;10.960;2023-02-19T08:30:21;98386.13;;;12.10;68.87
15884;BME280;8040;50.254;10.960;2023-02-19T08:32:46;98384.47;;;12.09;69.05
15884;BME280;8040;50.254;10.960;2023-02-19T08:35:12;98399.00;;;12.04;68.62
15884;BME280;8040;50.254;10.960;2023-02-19T08:37:37;98382.00;;;11.99;69.18
15884;BME280;8040;50.254;10.960;2023-02-19T08:40:03;98409.47;;;12.11;68.60
15884;BME280;8040;50.254;10.960;2023-02-19T08:42:28;98411.19;;;12.07;68.56
15884;BME280;8040;50.254;10.960;2023-02-19T08:44:53;98415.09;;;12.14;68.34
15884;BME280;8040;50.254;10.960;2023-02-19T08:47:19;98413.69;;;12.17;67.48
15884;BME280;8040;50.254;10.960;2023-02-19T08:49:44;98430.88;;;12.26;67.72
15884;BME280;8040;50.254;10.960;2023-02-19T08:52:10;98414.94;;;12.33;67.43
15884;BME280;8040;50.254;10.960;2023-02-19T08:54:35;98422.03;;;12.34;67.37
15884;BME280;8040;50.254;10.960;2023-02-19T08:57:00;98419.69;;;12.41;67.35
15884;BME280;8040;50.254;10.960;2023-02-19T08:59:28;98438.84;;;12.58;67.01
15884;BME280;8040;50.254;10.960;2023-02-19T09:01:53;98440.97;;;12.61;66.78
15884;BME280;8040;50.254;10.960;2023-02-19T09:04:18;98448.84;;;12.62;65.45
15884;BME280;8040;50.254;10.960;2023-02-19T09:06:44;98463.34;;;12.58;66.14
15884;BME280;8040;50.254;10.960;2023-02-19T09:09:09;98459.94;;;12.52;66.30
15884;BME280;8040;50.254;10.960;2023-02-19T09:11:37;98471.31;;;12.54;66.19
15884;BME280;8040;50.254;10.960;2023-02-19T09:14:03;98468.78;;;12.58;66.38
15884;BME280;8040;50.254;10.960;2023-02-19T09:16:32;98469.41;;;12.55;65.83
15884;BME280;8040;50.254;10.960;2023-02-19T09:19:00;98466.41;;;12.56;65.71
15884;BME280;8040;50.254;10.960;2023-02-19T09:21:26;98460.38;;;12.46;65.63
15884;BME280;8040;50.254;10.960;2023-02-19T09:23:52;98464.72;;;12.47;65.29
15884;BME280;8040;50.254;10.960;2023-02-19T09:26:17;98462.47;;;12.49;65.29
15884;BME280;8040;50.254;10.960;2023-02-19T09:28:43;98467.63;;;12.50;66.06
15884;BME280;8040;50.254;10.960;2023-02-19T09:31:13;98464.72;;;12.47;66.03
15884;BME280;8040;50.254;10.960;2023-02-19T09:33:46;98474.84;;;12.55;65.61
15884;BME280;8040;50.254;10.960;2023-02-19T09:36:13;98465.69;;;12.51;65.99
15884;BME280;8040;50.254;10.960;2023-02-19T09:38:39;98471.41;;;12.63;65.59
15884;BME280;8040;50.254;10.960;2023-02-19T09:41:41;98473.53;;;12.66;65.17
15884;BME280;8040;50.254;10.960;2023-02-19T09:43:59;98484.28;;;12.71;64.54
15884;BME280;8040;50.254;10.960;2023-02-19T09:46:32;98487.03;;;12.71;65.20
15884;BME280;8040;50.254;10.960;2023-02-19T09:49:17;98487.78;;;12.85;64.86
15884;BME280;8040;50.254;10.960;2023-02-19T09:52:05;98478.16;;;12.65;63.88
15884;BME280;8040;50.254;10.960;2023-02-19T09:54:32;98500.75;;;13.01;64.27
15884;BME280;8040;50.254;10.960;2023-02-19T09:57:01;98495.47;;;13.05;63.78
15884;BME280;8040;50.254;10.960;2023-02-19T09:59:30;98488.91;;;13.28;63.46
15884;BME280;8040;50.254;10.960;2023-02-19T10:02:10;98502.47;;;13.41;62.07
15884;BME280;8040;50.254;10.960;2023-02-19T10:04:39;98502.78;;;13.40;61.03
15884;BME280;8040;50.254;10.960;2023-02-19T10:07:11;98506.88;;;13.29;61.27
15884;BME280;8040;50.254;10.960;2023-02-19T10:09:37;98508.03;;;13.36;60.97
15884;BME280;8040;50.254;10.960;2023-02-19T10:12:12;98509.66;;;13.37;60.71
15884;BME280;8040;50.254;10.960;2023-02-19T10:14:43;98511.56;;;13.37;60.71
15884;BME280;8040;50.254;10.960;2023-02-19T10:17:32;98509.84;;;13.41;60.45
15884;BME280;8040;50.254;10.960;2023-02-19T10:20:00;98495.72;;;13.39;59.68
15884;BME280;8040;50.254;10.960;2023-02-19T10:22:29;98505.19;;;13.41;59.99
15884;BME280;8040;50.254;10.960;2023-02-19T10:24:55;98522.38;;;13.20;59.69
15884;BME280;8040;50.254;10.960;2023-02-19T10:27:21;98515.97;;;13.02;60.52
15884;BME280;8040;50.254;10.960;2023-02-19T10:29:50;98508.72;;;12.98;60.62
15884;BME280;8040;50.254;10.960;2023-02-19T10:32:19;98519.25;;;13.13;60.71
15884;BME280;8040;50.254;10.960;2023-02-19T10:35:06;98535.28;;;13.14;60.33
15884;BME280;8040;50.254;10.960;2023-02-19T10:37:33;98533.97;;;13.12;61.57
15884;BME280;8040;50.254;10.960;2023-02-19T10:39:59;98525.22;;;13.15;60.98
15884;BME280;8040;50.254;10.960;2023-02-19T10:42:25;98553.13;;;13.20;61.06
15884;BME280;8040;50.254;10.960;2023-02-19T10:44:55;98543.53;;;13.01;62.10
15884;BME280;8040;50.254;10.960;2023-02-19T10:47:24;98541.19;;;12.94;64.02
15884;BME280;8040;50.254;10.960;2023-02-19T10:49:52;98555.38;;;12.91;64.99
15884;BME280;8040;50.254;10.960;2023-02-19T10:52:25;98546.53;;;12.86;64.84
15884;BME280;8040;50.254;10.960;2023-02-19T10:55:01;98549.63;;;12.71;66.19
15884;BME280;8040;50.254;10.960;2023-02-19T10:57:37;98560.50;;;12.71;66.50
15884;BME280;8040;50.254;10.960;2023-02-19T11:00:20;98565.75;;;12.67;64.38
15884;BME280;8040;50.254;10.960;2023-02-19T11:02:47;98576.22;;;12.60;64.82
15884;BME280;8040;50.254;10.960;2023-02-19T11:05:17;98574.53;;;12.51;65.37
15884;BME280;8040;50.254;10.960;2023-02-19T11:07:47;98585.72;;;12.49;65.65
15884;BME280;8040;50.254;10.960;2023-02-19T11:12:47;98563.25;;;12.44;64.70
15884;BME280;8040;50.254;10.960;2023-02-19T11:15:30;98586.72;;;12.53;64.49
15884;BME280;8040;50.254;10.960;2023-02-19T11:20:54;98604.53;;;12.73;64.55
15884;BME280;8040;50.254;10.960;2023-02-19T11:23:28;98603.22;;;12.84;64.30
15884;BME280;8040;50.254;10.960;2023-02-19T11:25:56;98617.22;;;12.91;64.28
15884;BME280;8040;50.254;10.960;2023-02-19T11:31:13;98604.09;;;12.93;64.79
15884;BME280;8040;50.254;10.960;2023-02-19T11:33:53;98627.81;;;13.06;65.27
15884;BME280;8040;50.254;10.960;2023-02-19T11:36:34;98613.50;;;12.87;64.71
15884;BME280;8040;50.254;10.960;2023-02-19T11:39:26;98635.28;;;13.00;65.52
15884;BME280;8040;50.254;10.960;2023-02-19T11:53:25;98654.22;;;12.78;66.43
15884;BME280;8040;50.254;10.960;2023-02-19T11:58:42;98648.78;;;12.38;67.46
15884;BME280;8040;50.254;10.960;2023-02-19T12:06:59;98645.34;;;12.19;67.94
15884;BME280;8040;50.254;10.960;2023-02-19T12:23:48;98646.91;;;11.93;69.59
15884;BME280;8040;50.254;10.960;2023-02-19T12:26:30;98641.47;;;11.93;69.35
15884;BME280;8040;50.254;10.960;2023-02-19T12:29:10;98645.53;;;12.09;69.83
15884;BME280;8040;50.254;10.960;2023-02-19T12:37:09;98648.06;;;12.19;69.40
15884;BME280;8040;50.254;10.960;2023-02-19T12:45:23;98645.41;;;12.46;69.40
15884;BME280;8040;50.254;10.960;2023-02-19T12:47:58;98652.84;;;12.54;69.43
15884;BME280;8040;50.254;10.960;2023-02-19T12:50:27;98651.81;;;12.50;69.33
15884;BME280;8040;50.254;10.960;2023-02-19T12:53:04;98643.75;;;12.45;70.01
15884;BME280;8040;50.254;10.960;2023-02-19T12:55:38;98638.31;;;12.58;71.13
15884;BME280;8040;50.254;10.960;2023-02-19T12:58:09;98641.03;;;12.58;70.63
15884;BME280;8040;50.254;10.960;2023-02-19T13:00:40;98659.19;;;12.63;70.39
15884;BME280;8040;50.254;10.960;2023-02-19T13:06:29;98659.41;;;12.53;70.25
15884;BME280;8040;50.254;10.960;2023-02-19T13:09:02;98659.88;;;12.55;70.24
15884;BME280;8040;50.254;10.960;2023-02-19T13:11:42;98643.38;;;12.51;70.07
15884;BME280;8040;50.254;10.960;2023-02-19T13:14:28;98646.09;;;12.65;70.63
15884;BME280;8040;50.254;10.960;2023-02-19T13:16:59;98641.03;;;12.45;70.57
15884;BME280;8040;50.254;10.960;2023-02-19T13:19:27;98630.56;;;12.38;70.15
15884;BME280;8040;50.254;10.960;2023-02-19T13:22:01;98649.41;;;12.48;70.89
15884;BME280;8040;50.254;10.960;2023-02-19T13:24:48;98655.03;;;12.52;70.35
15884;BME280;8040;50.254;10.960;2023-02-19T13:30:17;98663.94;;;12.57;70.62
15884;BME280;8040;50.254;10.960;2023-02-19T13:38:31;98682.94;;;12.44;68.65
15884;BME280;8040;50.254;10.960;2023-02-19T13:40:58;98675.59;;;12.31;68.75
15884;BME280;8040;50.254;10.960;2023-02-19T13:43:28;98688.06;;;12.32;68.51
15884;BME280;8040;50.254;10.960;2023-02-19T13:46:08;98682.63;;;12.32;68.70
15884;BME280;8040;50.254;10.960;2023-02-19T13:48:39;98679.81;;;12.37;68.72
15884;BME280;8040;50.254;10.960;2023-02-19T13:53:57;98687.91;;;12.42;68.74
15884;BME280;8040;50.254;10.960;2023-02-19T14:04:28;98699.88;;;12.27;69.53
15884;BME280;8040;50.254;10.960;2023-02-19T14:14:45;98733.34;;;12.09;71.16
15884;BME280;8040;50.254;10.960;2023-02-19T14:20:01;98730.00;;;11.99;72.55
15884;BME280;8040;50.254;10.960;2023-02-19T14:27:53;98748.81;;;11.95;74.57
15884;BME280;8040;50.254;10.960;2023-02-19T14:30:19;98736.25;;;11.81;74.61
15884;BME280;8040;50.254;10.960;2023-02-19T14:32:46;98741.09;;;11.84;75.61
15884;BME280;8040;50.254;10.960;2023-02-19T14:35:29;98747.13;;;11.81;75.48
15884;BME280;8040;50.254;10.960;2023-02-19T14:37:57;98746.69;;;11.74;75.55
15884;BME280;8040;50.254;10.960;2023-02-19T14:40:29;98753.88;;;11.65;75.77
15884;BME280;8040;50.254;10.960;2023-02-19T14:42:58;98735.63;;;11.47;76.57
15884;BME280;8040;50.254;10.960;2023-02-19T14:45:26;98762.69;;;11.57;76.93
15884;BME280;8040;50.254;10.960;2023-02-19T14:47:55;98758.53;;;11.41;78.35
15884;BME280;8040;50.254;10.960;2023-02-19T14:50:27;98770.78;;;11.38;76.90
15884;BME280;8040;50.254;10.960;2023-02-19T14:52:57;98746.84;;;11.22;76.91
15884;BME280;8040;50.254;10.960;2023-02-19T14:55:32;98757.75;;;11.17;76.77
15884;BME280;8040;50.254;10.960;2023-02-19T14:58:03;98763.78;;;11.14;77.34
15884;BME280;8040;50.254;10.960;2023-02-19T15:00:35;98767.00;;;11.16;77.34
15884;BME280;8040;50.254;10.960;2023-02-19T15:03:02;98769.06;;;11.24;77.90
15884;BME280;8040;50.254;10.960;2023-02-19T15:05:32;98759.84;;;11.25;78.57
15884;BME280;8040;50.254;10.960;2023-02-19T15:08:05;98756.44;;;11.14;77.87
15884;BME280;8040;50.254;10.960;2023-02-19T15:10:32;98742.13;;;11.09;78.19
15884;BME280;8040;50.254;10.960;2023-02-19T15:13:01;98760.44;;;11.22;78.22
15884;BME280;8040;50.254;10.960;2023-02-19T15:15:36;98751.31;;;11.13;78.23
15884;BME280;8040;50.254;10.960;2023-02-19T15:18:04;98750.78;;;11.11;78.10
15884;BME280;8040;50.254;10.960;2023-02-19T15:20:33;98748.66;;;11.08;77.70
15884;BME280;8040;50.254;10.960;2023-02-19T15:23:00;98751.53;;;10.93;76.97